Time;durP1;ratioP1;P1;durP2;ratioP2;P2;SDS_P1;SDS_P2;PMS_P1;PMS_P2;Temp;Humidity;BMP_temperature;BMP_pressure;BME280_temperature;BME280_humidity;BME280_pressure;Samples;Min_cycle;Max_cycle;Signal;HPM_P1;HPM_P2
2021/01/28 00:01:42;;;;;;;29.17;15.23;;;6.40;99.90;;;;;;5013432;28;20191;-64
2021/01/28 00:04:08;;;;;;;30.67;15.07;;;6.40;99.90;;;;;;5013447;28;20181;-63
2021/01/28 00:06:33;;;;;;;34.13;17.07;;;6.40;99.90;;;;;;5011836;28;20184;-63
2021/01/28 00:08:59;;;;;;;35.97;17.20;;;6.50;99.90;;;;;;5013155;28;20556;-63
2021/01/28 00:11:24;;;;;;;33.03;15.93;;;6.50;99.90;;;;;;5012938;28;20272;-63
2021/01/28 00:13:50;;;;;;;33.17;17.00;;;6.50;99.90;;;;;;5013187;28;20242;-63
2021/01/28 00:16:16;;;;;;;27.83;16.67;;;6.50;99.90;;;;;;5012835;28;20250;-63
2021/01/28 00:18:41;;;;;;;31.87;17.07;;;6.50;99.90;;;;;;5012892;28;20537;-63
2021/01/28 00:21:07;;;;;;;29.90;17.47;;;6.40;99.90;;;;;;5012635;28;20216;-64
2021/01/28 00:23:33;;;;;;;33.27;16.10;;;6.40;99.90;;;;;;5013116;28;20168;-64
2021/01/28 00:25:58;;;;;;;36.77;16.07;;;6.40;99.90;;;;;;5012681;28;20696;-64
2021/01/28 00:28:24;;;;;;;29.23;16.53;;;6.40;99.90;;;;;;5012680;28;20187;-64
2021/01/28 00:30:52;;;;;;;22.47;12.93;;;6.40;99.90;;;;;;5012559;28;20262;-63
2021/01/28 00:33:21;;;;;;;26.73;12.87;;;6.40;99.90;;;;;;5012886;28;20638;-63
2021/01/28 00:35:48;;;;;;;30.93;12.70;;;6.40;99.90;;;;;;5012537;28;20211;-64
2021/01/28 00:38:20;;;;;;;21.70;13.00;;;6.40;99.90;;;;;;5012301;28;20642;-64
2021/01/28 00:40:46;;;;;;;26.63;12.33;;;6.30;99.90;;;;;;5012524;28;20200;-64
2021/01/28 00:43:13;;;;;;;30.50;13.10;;;6.30;99.90;;;;;;5012724;28;20168;-62
2021/01/28 00:45:38;;;;;;;30.93;13.57;;;6.30;99.90;;;;;;5012490;28;20188;-64
2021/01/28 00:48:04;;;;;;;31.33;13.30;;;6.30;99.90;;;;;;5012211;28;20184;-64
2021/01/28 00:50:31;;;;;;;23.87;11.93;;;6.40;99.90;;;;;;5012105;28;20302;-64
2021/01/28 00:52:57;;;;;;;21.57;11.63;;;6.30;99.90;;;;;;5011913;28;20180;-63
2021/01/28 00:55:23;;;;;;;31.27;12.30;;;6.30;99.90;;;;;;5012106;28;20234;-64
2021/01/28 00:57:50;;;;;;;25.53;11.57;;;6.20;99.90;;;;;;5012164;28;20227;-64
2021/01/28 01:00:17;;;;;;;25.27;11.47;;;6.20;99.90;;;;;;5011395;28;20192;-63
2021/01/28 01:02:44;;;;;;;17.40;10.13;;;6.20;99.90;;;;;;5012456;28;20609;-63
2021/01/28 01:05:12;;;;;;;27.93;11.93;;;6.20;99.90;;;;;;5012004;28;20247;-64
2021/01/28 01:07:38;;;;;;;25.77;11.17;;;6.20;99.90;;;;;;5011916;28;20543;-63
2021/01/28 01:10:07;;;;;;;28.00;11.63;;;6.20;99.90;;;;;;5011866;28;20204;-64
2021/01/28 01:12:33;;;;;;;25.37;12.03;;;6.20;99.90;;;;;;5012018;28;20870;-63
2021/01/28 01:14:58;;;;;;;23.23;10.83;;;6.20;99.90;;;;;;5012049;28;20168;-63
2021/01/28 01:17:25;;;;;;;28.80;11.97;;;6.20;99.90;;;;;;5011704;28;20557;-64
2021/01/28 01:19:51;;;;;;;25.00;11.70;;;6.20;99.90;;;;;;5012074;28;20196;-64
2021/01/28 01:22:16;;;;;;;22.13;10.87;;;6.20;99.90;;;;;;5011821;28;20202;-63
2021/01/28 01:24:42;;;;;;;20.13;10.50;;;6.30;99.90;;;;;;5012031;28;20172;-64
2021/01/28 01:27:08;;;;;;;23.93;11.03;;;6.30;99.90;;;;;;5011669;28;20192;-64
2021/01/28 01:29:33;;;;;;;20.23;10.60;;;6.30;99.90;;;;;;5012018;28;20282;-64
2021/01/28 01:32:00;;;;;;;19.70;10.23;;;6.40;99.90;;;;;;5011982;28;20638;-64
2021/01/28 01:34:25;;;;;;;19.80;10.30;;;6.40;99.90;;;;;;5012227;28;20781;-64
2021/01/28 01:36:51;;;;;;;20.17;9.37;;;6.40;99.90;;;;;;5011447;28;20207;-64
2021/01/28 01:39:16;;;;;;;17.20;9.20;;;6.30;99.90;;;;;;5011706;28;20177;-64
2021/01/28 01:41:42;;;;;;;18.03;9.60;;;6.30;99.90;;;;;;5011686;28;20180;-64
2021/01/28 01:44:08;;;;;;;19.73;10.40;;;6.40;99.90;;;;;;5011614;28;20173;-64
2021/01/28 01:46:35;;;;;;;17.80;9.77;;;6.40;99.90;;;;;;5011418;28;20195;-64
2021/01/28 01:49:07;;;;;;;23.53;9.87;;;6.50;99.90;;;;;;5011433;28;20241;-63
2021/01/28 01:51:39;;;;;;;19.80;10.50;;;6.50;99.90;;;;;;5011201;28;20283;-64
2021/01/28 01:54:16;;;;;;;22.10;10.23;;;6.50;99.90;;;;;;5011585;28;20187;-63
2021/01/28 01:56:50;;;;;;;14.47;8.83;;;6.50;99.90;;;;;;5011354;28;20234;-64
2021/01/28 01:59:16;;;;;;;20.30;10.07;;;6.40;99.90;;;;;;5011626;28;20834;-63
2021/01/28 02:01:45;;;;;;;15.77;9.33;;;6.50;99.90;;;;;;5011779;28;20203;-63
2021/01/28 02:04:13;;;;;;;18.07;9.67;;;6.50;99.90;;;;;;5011545;28;20176;-64
2021/01/28 02:06:43;;;;;;;18.97;8.80;;;6.40;99.90;;;;;;5011447;28;20176;-64
2021/01/28 02:09:11;;;;;;;17.20;9.97;;;6.50;99.90;;;;;;5011398;28;20180;-64
2021/01/28 02:11:38;;;;;;;23.63;11.47;;;6.50;99.90;;;;;;5013440;28;20191;-64
2021/01/28 02:14:06;;;;;;;24.63;12.97;;;6.40;99.90;;;;;;5015383;28;20180;-63
2021/01/28 02:16:35;;;;;;;28.40;14.50;;;6.30;99.90;;;;;;5015182;28;20239;-63
2021/01/28 02:19:03;;;;;;;32.50;14.07;;;6.20;99.90;;;;;;5015133;28;20177;-63
2021/01/28 02:21:30;;;;;;;24.33;13.50;;;6.20;99.90;;;;;;5015335;28;20206;-63
2021/01/28 02:24:17;;;;;;;24.37;14.57;;;6.20;99.90;;;;;;5015262;28;20184;-63
2021/01/28 02:26:44;;;;;;;24.90;11.83;;;6.10;99.90;;;;;;5015113;28;20719;-64
2021/01/28 02:29:10;;;;;;;27.23;14.47;;;6.10;99.90;;;;;;5015225;28;20176;-64
2021/01/28 02:31:37;;;;;;;27.93;11.80;;;6.10;99.90;;;;;;5015116;28;20188;-64
2021/01/28 02:34:06;;;;;;;23.13;11.93;;;6.00;99.90;;;;;;5014993;28;20187;-64
2021/01/28 02:36:40;;;;;;;30.40;12.77;;;6.00;99.90;;;;;;5014779;28;20342;-63
2021/01/28 02:39:08;;;;;;;23.00;11.07;;;6.00;99.90;;;;;;5014789;28;20179;-64
2021/01/28 02:41:34;;;;;;;20.87;10.90;;;6.00;99.90;;;;;;5014728;28;20199;-64
2021/01/28 02:44:01;;;;;;;19.40;10.10;;;6.00;99.90;;;;;;5014927;28;20173;-64
2021/01/28 02:46:27;;;;;;;19.13;9.80;;;6.10;99.90;;;;;;5014856;28;20176;-65
2021/01/28 02:48:53;;;;;;;19.07;9.03;;;6.10;99.90;;;;;;5014375;28;20218;-64
2021/01/28 02:51:20;;;;;;;20.57;9.90;;;6.00;99.90;;;;;;5014641;28;20239;-64
2021/01/28 02:53:48;;;;;;;20.77;10.43;;;6.00;99.90;;;;;;5013778;28;20188;-63
2021/01/28 02:56:14;;;;;;;21.73;9.47;;;5.90;99.90;;;;;;5014634;28;20204;-64
2021/01/28 02:58:40;;;;;;;16.43;9.20;;;5.90;99.90;;;;;;5014234;28;20726;-63
2021/01/28 03:01:07;;;;;;;15.50;9.03;;;5.90;99.90;;;;;;5014280;28;20210;-64
2021/01/28 03:03:32;;;;;;;25.03;10.53;;;5.90;99.90;;;;;;5014680;28;20180;-63
2021/01/28 03:05:58;;;;;;;19.20;9.50;;;5.90;99.90;;;;;;5014227;28;20180;-64
2021/01/28 03:08:25;;;;;;;19.20;9.37;;;5.90;99.90;;;;;;5014154;28;20202;-64
2021/01/28 03:10:52;;;;;;;20.17;9.57;;;5.90;99.90;;;;;;5014259;28;20204;-64
2021/01/28 03:13:18;;;;;;;22.10;9.20;;;5.90;99.90;;;;;;5014355;28;20212;-63
2021/01/28 03:15:44;;;;;;;20.03;10.07;;;5.90;99.90;;;;;;5014149;28;20235;-64
2021/01/28 03:18:09;;;;;;;13.33;8.77;;;5.90;99.90;;;;;;5013840;28;20176;-63
2021/01/28 03:20:37;;;;;;;16.27;8.53;;;5.90;99.90;;;;;;5014286;28;20219;-64
2021/01/28 03:23:03;;;;;;;13.47;7.63;;;5.90;99.90;;;;;;5013303;28;20183;-63
2021/01/28 03:25:28;;;;;;;19.67;7.80;;;5.80;99.90;;;;;;5014335;28;20176;-64
2021/01/28 03:27:54;;;;;;;11.33;7.50;;;5.80;99.90;;;;;;5013619;28;20222;-64
2021/01/28 03:30:30;;;;;;;22.47;8.20;;;5.80;99.90;;;;;;5013947;28;20199;-63
2021/01/28 03:32:57;;;;;;;12.80;7.60;;;5.80;99.90;;;;;;5013776;28;20184;-64
2021/01/28 03:35:23;;;;;;;11.37;6.80;;;5.70;99.90;;;;;;5013971;28;20595;-64
2021/01/28 03:37:50;;;;;;;21.10;8.13;;;5.70;99.90;;;;;;5013493;28;20176;-64
2021/01/28 03:40:17;;;;;;;18.90;8.27;;;5.70;99.90;;;;;;5013706;28;20195;-64
2021/01/28 03:42:43;;;;;;;11.60;7.80;;;5.60;99.90;;;;;;5013542;28;20176;-62
2021/01/28 03:45:09;;;;;;;15.87;8.30;;;5.60;99.90;;;;;;5013246;28;20173;-64
2021/01/28 03:47:35;;;;;;;10.43;8.23;;;5.60;99.90;;;;;;5013411;28;20208;-64
2021/01/28 03:50:01;;;;;;;15.17;7.93;;;5.60;99.90;;;;;;5013252;28;20250;-64
2021/01/28 03:52:26;;;;;;;10.10;7.03;;;5.70;99.90;;;;;;5013081;28;20184;-65
2021/01/28 03:54:52;;;;;;;13.03;7.23;;;5.70;99.90;;;;;;5013754;28;20209;-64
2021/01/28 03:57:18;;;;;;;10.10;6.43;;;5.70;99.90;;;;;;5013274;28;20286;-64
2021/01/28 03:59:44;;;;;;;12.60;7.30;;;5.60;99.90;;;;;;5013717;28;20196;-64
2021/01/28 04:02:09;;;;;;;12.50;7.83;;;5.60;99.90;;;;;;5013091;28;20172;-64
2021/01/28 04:04:35;;;;;;;11.60;7.97;;;5.50;99.90;;;;;;5013414;28;20207;-63
2021/01/28 04:07:00;;;;;;;13.67;7.97;;;5.50;99.90;;;;;;5013005;28;20184;-64
2021/01/28 04:09:26;;;;;;;14.43;7.17;;;5.40;99.90;;;;;;5012949;28;20208;-63
2021/01/28 04:11:51;;;;;;;9.67;7.60;;;5.40;99.90;;;;;;5013391;28;20176;-64
2021/01/28 04:14:17;;;;;;;11.83;7.00;;;5.40;99.90;;;;;;5013112;28;20584;-63
2021/01/28 04:16:43;;;;;;;12.57;7.03;;;5.40;99.90;;;;;;5013011;28;20322;-63
2021/01/28 04:19:08;;;;;;;14.40;6.90;;;5.40;99.90;;;;;;5012715;28;20176;-63
2021/01/28 04:21:35;;;;;;;9.90;7.27;;;5.40;99.90;;;;;;5013218;28;20586;-63
2021/01/28 04:24:02;;;;;;;9.30;6.70;;;5.40;99.90;;;;;;5012864;28;20173;-64
2021/01/28 04:26:28;;;;;;;14.40;8.07;;;5.40;99.90;;;;;;5013096;28;20187;-63
2021/01/28 04:28:54;;;;;;;10.40;7.30;;;5.50;99.90;;;;;;5012516;28;20589;-63
2021/01/28 04:31:20;;;;;;;15.30;7.23;;;5.50;99.90;;;;;;5012899;28;20196;-63
2021/01/28 04:33:45;;;;;;;14.90;7.57;;;5.60;99.90;;;;;;5012431;28;20183;-63
2021/01/28 04:36:11;;;;;;;14.10;7.30;;;5.60;99.90;;;;;;5011923;28;20208;-64
2021/01/28 04:38:36;;;;;;;12.90;7.47;;;5.60;99.90;;;;;;5012248;28;20179;-63
2021/01/28 04:41:26;;;;;;;11.00;6.37;;;5.70;99.90;;;;;;5012614;28;20287;-63
2021/01/28 04:43:54;;;;;;;14.37;7.23;;;5.60;99.90;;;;;;5012620;28;20172;-63
2021/01/28 04:46:33;;;;;;;12.57;7.57;;;5.60;99.90;;;;;;5012545;28;20211;-64
2021/01/28 04:49:01;;;;;;;9.87;7.03;;;5.60;99.90;;;;;;5012352;28;20179;-63
2021/01/28 04:51:28;;;;;;;16.00;7.77;;;5.60;99.90;;;;;;5012361;28;20211;-63
2021/01/28 04:54:02;;;;;;;12.47;7.00;;;5.60;99.90;;;;;;5011302;28;20223;-63
2021/01/28 04:56:31;;;;;;;11.07;7.57;;;5.60;99.90;;;;;;5012421;28;20719;-64
2021/01/28 04:59:05;;;;;;;13.93;7.97;;;5.60;99.90;;;;;;5011905;28;20650;-63
2021/01/28 05:01:32;;;;;;;12.63;8.27;;;5.50;99.90;;;;;;5012428;28;20179;-63
2021/01/28 05:04:00;;;;;;;13.33;8.83;;;5.50;99.90;;;;;;5012142;28;20223;-63
2021/01/28 05:06:25;;;;;;;11.87;8.47;;;5.60;99.90;;;;;;5012295;28;20187;-65
2021/01/28 05:08:51;;;;;;;14.43;10.60;;;5.60;99.90;;;;;;5010531;28;20772;-64
2021/01/28 05:11:26;;;;;;;13.77;9.37;;;5.60;99.90;;;;;;5012425;28;20705;-64
2021/01/28 05:13:52;;;;;;;14.73;9.03;;;5.60;99.90;;;;;;5012192;28;20199;-64
2021/01/28 05:16:46;;;;;;;10.80;8.37;;;5.60;99.90;;;;;;5012004;28;20609;-63
2021/01/28 05:19:33;;;;;;;16.17;9.20;;;5.50;99.90;;;;;;5010700;28;20206;-63
2021/01/28 05:22:04;;;;;;;16.63;8.33;;;5.50;99.90;;;;;;5011966;28;20255;-63
2021/01/28 05:24:42;;;;;;;16.10;9.73;;;5.50;99.90;;;;;;5011929;28;20263;-64
2021/01/28 05:27:17;;;;;;;13.67;8.17;;;5.40;99.90;;;;;;5011776;28;20168;-64
2021/01/28 05:29:45;;;;;;;12.57;8.83;;;5.40;99.90;;;;;;5011804;28;20619;-63
2021/01/28 05:32:31;;;;;;;11.23;8.10;;;5.40;99.90;;;;;;5011847;28;20263;-64
2021/01/28 05:35:23;;;;;;;15.97;8.73;;;5.40;99.90;;;;;;5011768;28;20184;-63
2021/01/28 05:38:01;;;;;;;11.57;8.17;;;5.40;99.90;;;;;;5008417;28;20199;-63
2021/01/28 05:40:28;;;;;;;12.53;8.13;;;5.40;99.90;;;;;;4972912;28;20300;-63
2021/01/28 05:42:54;;;;;;;12.80;7.17;;;5.30;99.90;;;;;;4973353;28;20566;-63
2021/01/28 05:45:22;;;;;;;12.77;8.23;;;5.30;99.90;;;;;;5011466;28;20282;-63
2021/01/28 05:47:49;;;;;;;12.53;8.13;;;5.30;99.90;;;;;;5011522;28;20259;-63
2021/01/28 05:50:28;;;;;;;9.77;7.07;;;5.30;99.90;;;;;;5027564;23;20263;-63
2021/01/28 05:53:16;;;;;;;14.40;8.47;;;5.30;99.90;;;;;;4991228;28;20191;-63
2021/01/28 05:55:43;;;;;;;14.83;7.87;;;5.30;99.90;;;;;;4992187;28;20212;-63
2021/01/28 05:58:35;;;;;;;10.80;6.77;;;5.30;99.90;;;;;;4991791;28;20176;-63
2021/01/28 06:01:12;;;;;;;12.40;7.87;;;5.20;99.90;;;;;;5011462;28;20208;-63
2021/01/28 06:04:12;;;;;;;10.23;6.93;;;5.30;99.90;;;;;;5007995;28;20227;-64
2021/01/28 06:07:03;;;;;;;12.90;7.13;;;5.30;99.90;;;;;;4992379;28;20536;-64
2021/01/28 06:09:45;;;;;;;11.53;7.10;;;5.30;99.90;;;;;;5002036;28;20579;-64
2021/01/28 06:12:35;;;;;;;13.00;7.27;;;5.30;99.90;;;;;;5011478;28;20237;-64
2021/01/28 06:15:21;;;;;;;12.83;7.53;;;5.30;99.90;;;;;;4997655;28;20582;-63
2021/01/28 06:17:55;;;;;;;11.50;7.07;;;5.30;99.90;;;;;;4991748;28;20181;-64
2021/01/28 06:20:41;;;;;;;11.47;7.60;;;5.30;99.90;;;;;;5007667;28;20652;-64
2021/01/28 06:23:40;;;;;;;10.97;6.93;;;5.30;99.90;;;;;;5011486;28;20259;-63
2021/01/28 06:26:34;;;;;;;12.87;7.27;;;5.20;99.90;;;;;;4972492;28;20240;-63
2021/01/28 06:29:29;;;;;;;11.27;7.17;;;5.20;99.90;;;;;;4980293;28;20173;-64
2021/01/28 06:32:20;;;;;;;13.90;7.27;;;5.20;99.90;;;;;;5011683;28;20238;-64
2021/01/28 06:34:46;;;;;;;10.67;7.17;;;5.10;99.90;;;;;;5001558;28;20547;-64
2021/01/28 06:37:35;;;;;;;13.77;7.53;;;5.10;99.90;;;;;;4991557;28;20205;-64
2021/01/28 06:40:02;;;;;;;13.67;8.00;;;5.10;99.90;;;;;;5002622;28;20208;-64
2021/01/28 06:42:45;;;;;;;13.30;7.30;;;5.10;99.90;;;;;;5011227;28;20322;-64
2021/01/28 06:45:23;;;;;;;13.37;8.57;;;5.10;99.90;;;;;;4999023;28;20185;-64
2021/01/28 06:48:07;;;;;;;11.27;7.70;;;5.10;99.90;;;;;;4991534;28;20164;-64
2021/01/28 06:50:41;;;;;;;12.97;8.53;;;5.10;99.90;;;;;;5000687;28;20270;-64
2021/01/28 06:53:27;;;;;;;14.87;7.97;;;5.20;99.90;;;;;;4990517;28;20638;-64
2021/01/28 06:56:04;;;;;;;12.83;7.97;;;5.10;99.90;;;;;;4972135;28;20300;-64
2021/01/28 06:58:41;;;;;;;15.33;8.00;;;5.10;99.90;;;;;;4977594;28;20169;-64
2021/01/28 07:01:30;;;;;;;11.47;7.90;;;5.10;99.90;;;;;;5014678;28;20613;-64
2021/01/28 07:04:22;;;;;;;11.93;7.70;;;5.10;99.90;;;;;;5009339;28;20204;-65
2021/01/28 07:07:06;;;;;;;14.07;8.10;;;5.10;99.90;;;;;;4995057;28;20640;-65
2021/01/28 07:09:41;;;;;;;13.83;7.83;;;5.10;99.90;;;;;;5003863;28;20184;-64
2021/01/28 07:12:09;;;;;;;12.97;7.90;;;5.10;99.90;;;;;;5012952;28;20168;-64
2021/01/28 07:14:35;;;;;;;16.83;9.23;;;5.10;99.90;;;;;;5004885;28;20181;-64
2021/01/28 07:17:32;;;;;;;10.70;8.20;;;5.10;99.90;;;;;;4994457;28;20223;-65
2021/01/28 07:20:05;;;;;;;12.23;8.20;;;5.10;99.90;;;;;;5001975;28;20215;-65
2021/01/28 07:22:40;;;;;;;13.83;8.27;;;5.10;99.90;;;;;;5014133;28;20173;-65
2021/01/28 07:25:35;;;;;;;14.87;10.13;;;5.10;99.90;;;;;;5001761;28;20633;-64
2021/01/28 07:28:19;;;;;;;14.93;8.33;;;5.10;99.90;;;;;;4988849;28;20185;-64
2021/01/28 07:30:48;;;;;;;14.10;8.00;;;5.10;99.90;;;;;;5011424;28;20211;-64
2021/01/28 07:33:40;;;;;;;15.67;7.97;;;5.10;99.90;;;;;;5013738;28;20270;-64
2021/01/28 07:36:32;;;;;;;15.13;8.40;;;5.10;99.90;;;;;;4993006;28;20249;-65
2021/01/28 07:38:59;;;;;;;13.70;7.93;;;5.10;99.90;;;;;;4995088;28;20264;-64
2021/01/28 07:41:53;;;;;;;12.10;7.97;;;5.10;99.90;;;;;;5013645;28;20695;-65
2021/01/28 07:44:41;;;;;;;13.13;7.83;;;5.10;99.90;;;;;;4992474;28;20250;-65
2021/01/28 07:47:30;;;;;;;11.27;7.20;;;5.10;99.90;;;;;;4994138;28;20184;-65
2021/01/28 07:50:14;;;;;;;14.27;8.03;;;5.10;99.90;;;;;;4974916;28;20205;-65
2021/01/28 07:52:41;;;;;;;17.43;8.10;;;5.10;99.90;;;;;;4978399;28;20177;-65
2021/01/28 07:55:36;;;;;;;12.40;7.80;;;5.10;99.90;;;;;;5013539;28;20176;-65
2021/01/28 07:58:23;;;;;;;10.03;7.57;;;5.10;99.90;;;;;;5008458;28;20185;-65
2021/01/28 08:00:50;;;;;;;10.30;7.67;;;5.20;99.90;;;;;;4994033;28;20200;-65
2021/01/28 08:03:45;;;;;;;10.07;6.67;;;5.20;99.90;;;;;;4999515;28;20291;-65
2021/01/28 08:06:12;;;;;;;12.67;7.57;;;5.20;99.90;;;;;;5013339;28;20188;-65
2021/01/28 08:08:38;;;;;;;9.63;6.80;;;5.20;99.90;;;;;;5004462;28;20251;-65
2021/01/28 08:11:17;;;;;;;8.70;6.43;;;5.20;99.90;;;;;;4993627;28;20288;-64
2021/01/28 08:13:42;;;;;;;8.07;6.27;;;5.20;99.90;;;;;;5001935;28;20254;-65
2021/01/28 08:16:16;;;;;;;9.73;6.57;;;5.20;99.90;;;;;;5012612;28;20560;-65
2021/01/28 08:18:43;;;;;;;12.20;7.47;;;5.20;99.90;;;;;;5004927;28;20204;-65
2021/01/28 08:21:18;;;;;;;10.50;7.13;;;5.20;99.90;;;;;;4993166;28;20682;-65
2021/01/28 08:23:44;;;;;;;9.90;6.67;;;5.20;99.90;;;;;;5000841;28;20188;-65
2021/01/28 08:26:13;;;;;;;10.77;7.03;;;5.20;99.90;;;;;;5012734;28;20579;-65
2021/01/28 08:28:44;;;;;;;10.63;7.47;;;5.20;99.90;;;;;;5006206;28;20189;-65
2021/01/28 08:31:32;;;;;;;10.30;7.40;;;5.20;99.90;;;;;;4993206;28;20674;-65
2021/01/28 08:34:00;;;;;;;9.37;5.90;;;5.10;99.90;;;;;;5001467;28;20175;-65
2021/01/28 08:37:03;;;;;;;7.43;5.40;;;5.10;99.90;;;;;;5012239;28;20212;-65
2021/01/28 08:39:35;;;;;;;8.83;5.93;;;5.10;99.90;;;;;;4995577;28;20544;-65
2021/01/28 08:42:13;;;;;;;9.23;5.23;;;5.10;99.90;;;;;;4993141;28;20559;-65
2021/01/28 08:44:40;;;;;;;9.53;6.47;;;5.10;99.90;;;;;;4994268;28;20584;-65
2021/01/28 08:47:18;;;;;;;9.00;5.60;;;5.10;99.90;;;;;;4992971;28;20180;-65
2021/01/28 08:49:57;;;;;;;7.90;5.43;;;5.10;99.90;;;;;;5006136;28;20219;-65
2021/01/28 08:52:23;;;;;;;13.33;6.57;;;5.10;99.90;;;;;;5010539;28;20182;-65
2021/01/28 08:54:49;;;;;;;7.67;5.30;;;5.10;99.90;;;;;;4999669;28;20172;-65
2021/01/28 08:57:19;;;;;;;9.80;5.30;;;5.10;99.90;;;;;;4992659;28;20666;-65
2021/01/28 08:59:49;;;;;;;8.10;5.53;;;5.10;99.90;;;;;;5004997;28;20704;-65
2021/01/28 09:02:19;;;;;;;8.90;5.53;;;5.10;99.90;;;;;;5012434;28;20172;-65
2021/01/28 09:04:50;;;;;;;7.80;5.27;;;5.10;99.90;;;;;;5000830;28;20247;-65
2021/01/28 09:07:53;;;;;;;6.40;4.40;;;5.10;99.90;;;;;;4992245;28;20212;-65
2021/01/28 09:10:42;;;;;;;7.03;5.23;;;5.10;99.90;;;;;;5007479;28;20224;-65
2021/01/28 09:13:19;;;;;;;6.57;4.43;;;5.20;99.90;;;;;;5012523;28;20177;-65
2021/01/28 09:15:45;;;;;;;9.03;5.23;;;5.20;99.90;;;;;;4993893;28;20282;-65
2021/01/28 09:18:38;;;;;;;6.20;4.43;;;5.20;99.90;;;;;;4992189;28;20176;-65
2021/01/28 09:21:15;;;;;;;8.03;4.90;;;5.20;99.90;;;;;;4972677;28;20194;-65
2021/01/28 09:24:28;;;;;;;5.77;4.33;;;5.30;99.90;;;;;;4995239;28;20181;-65
2021/01/28 09:27:20;;;;;;;6.73;4.83;;;5.30;99.90;;;;;;4991977;28;20224;-65
2021/01/28 09:29:47;;;;;;;4.63;4.20;;;5.40;99.90;;;;;;4983210;28;20299;-65
2021/01/28 09:32:33;;;;;;;6.53;4.33;;;5.40;99.90;;;;;;5004453;28;20180;-64
2021/01/28 09:35:12;;;;;;;5.00;4.37;;;5.40;99.90;;;;;;4992331;28;20172;-65
2021/01/28 09:37:40;;;;;;;5.70;4.70;;;5.40;99.90;;;;;;5001259;28;20227;-65
2021/01/28 09:40:18;;;;;;;7.40;5.10;;;5.40;99.90;;;;;;4994077;28;20607;-64
2021/01/28 09:42:44;;;;;;;5.17;3.93;;;5.40;99.90;;;;;;5002668;28;20565;-65
2021/01/28 09:45:12;;;;;;;4.93;4.43;;;5.40;99.90;;;;;;4997029;28;20184;-65
2021/01/28 09:47:38;;;;;;;6.07;4.30;;;5.40;99.90;;;;;;4991966;28;20192;-65
2021/01/28 09:50:07;;;;;;;8.37;4.70;;;5.40;99.90;;;;;;4993088;28;20212;-65
2021/01/28 09:52:39;;;;;;;6.53;4.67;;;5.40;99.90;;;;;;4991942;28;20172;-65
2021/01/28 09:55:17;;;;;;;9.53;4.60;;;5.40;99.90;;;;;;4995459;28;20662;-65
2021/01/28 09:57:43;;;;;;;8.93;4.50;;;5.40;99.90;;;;;;4997730;28;20196;-65
2021/01/28 10:00:12;;;;;;;6.77;4.37;;;5.50;99.90;;;;;;5004423;28;20278;-65
2021/01/28 10:03:01;;;;;;;7.00;4.93;;;5.40;99.90;;;;;;5001757;28;20177;-65
2021/01/28 10:05:29;;;;;;;5.53;4.67;;;5.50;99.90;;;;;;4991886;28;20169;-65
2021/01/28 10:07:55;;;;;;;5.40;4.27;;;5.50;99.90;;;;;;4992537;28;20519;-65
2021/01/28 10:10:24;;;;;;;5.63;4.17;;;5.50;99.90;;;;;;4996775;28;20268;-64
2021/01/28 10:12:54;;;;;;;5.77;4.30;;;5.40;99.90;;;;;;5011343;28;20681;-65
2021/01/28 10:15:21;;;;;;;5.80;4.80;;;5.40;99.90;;;;;;4994684;28;20180;-65
2021/01/28 10:17:46;;;;;;;4.53;3.97;;;5.50;99.90;;;;;;4992205;28;20205;-64
2021/01/28 10:20:13;;;;;;;7.77;4.70;;;5.50;99.90;;;;;;4996592;28;20192;-65
2021/01/28 10:22:41;;;;;;;10.87;6.97;;;5.60;99.90;;;;;;5011119;28;20168;-64
2021/01/28 10:25:09;;;;;;;12.03;7.27;;;5.70;99.90;;;;;;5007493;28;20173;-64
2021/01/28 10:27:36;;;;;;;8.40;5.60;;;5.70;99.90;;;;;;4991612;28;20224;-65
2021/01/28 10:30:02;;;;;;;6.20;5.00;;;5.80;99.90;;;;;;5003679;28;20278;-64
2021/01/28 10:32:28;;;;;;;5.47;4.90;;;5.80;99.90;;;;;;4993355;28;20736;-65
2021/01/28 10:34:54;;;;;;;5.40;4.63;;;5.90;99.90;;;;;;4995562;28;20661;-65
2021/01/28 10:37:20;;;;;;;5.00;4.33;;;5.90;99.90;;;;;;4995093;28;20196;-65
2021/01/28 10:39:45;;;;;;;5.33;4.83;;;5.90;99.90;;;;;;5000056;28;20675;-65
2021/01/28 10:42:32;;;;;;;13.63;9.60;;;5.90;99.90;;;;;;4995458;28;20173;-64
2021/01/28 10:45:01;;;;;;;7.80;5.20;;;5.90;99.90;;;;;;4999546;28;20541;-64
2021/01/28 10:47:26;;;;;;;5.03;4.47;;;5.90;99.90;;;;;;4994906;28;20185;-65
2021/01/28 10:49:52;;;;;;;6.60;5.50;;;5.90;99.90;;;;;;4996290;28;20551;-64
2021/01/28 10:52:17;;;;;;;8.53;6.17;;;6.00;99.90;;;;;;4995010;28;20172;-64
2021/01/28 10:54:43;;;;;;;5.70;5.10;;;6.00;99.90;;;;;;5011710;28;20188;-65
2021/01/28 10:57:09;;;;;;;6.83;4.70;;;6.10;99.90;;;;;;5005850;28;20208;-64
2021/01/28 10:59:34;;;;;;;7.47;5.33;;;6.20;99.90;;;;;;5009271;28;20732;-65
2021/01/28 11:02:00;;;;;;;5.07;4.53;;;6.20;99.90;;;;;;5008181;28;20180;-65
2021/01/28 11:04:26;;;;;;;14.10;7.47;;;6.30;99.90;;;;;;4994769;28;20169;-65
2021/01/28 11:06:51;;;;;;;8.10;5.10;;;6.40;99.90;;;;;;5000624;28;20646;-65
2021/01/28 11:09:17;;;;;;;8.17;5.17;;;6.40;99.90;;;;;;5013856;28;20175;-65
2021/01/28 11:11:42;;;;;;;7.90;4.47;;;6.40;99.90;;;;;;4994930;28;20216;-64
2021/01/28 11:14:08;;;;;;;6.57;4.87;;;6.40;99.90;;;;;;5011849;28;20631;-65
2021/01/28 11:16:35;;;;;;;9.97;5.20;;;6.50;99.90;;;;;;5008572;28;20209;-65
2021/01/28 11:19:03;;;;;;;5.33;4.43;;;6.40;99.90;;;;;;4994505;28;20161;-64
2021/01/28 11:21:29;;;;;;;6.07;5.40;;;6.40;99.90;;;;;;5013631;28;20352;-64
2021/01/28 11:23:54;;;;;;;5.97;5.00;;;6.40;99.90;;;;;;5009211;28;20191;-64
2021/01/28 11:26:20;;;;;;;6.17;4.80;;;6.50;99.90;;;;;;5013937;28;20172;-65
2021/01/28 11:28:45;;;;;;;7.73;5.20;;;6.50;99.90;;;;;;5012236;28;20263;-64
2021/01/28 11:31:11;;;;;;;7.50;5.13;;;6.50;99.90;;;;;;5013835;28;20211;-64
2021/01/28 11:33:37;;;;;;;8.43;5.40;;;6.60;99.90;;;;;;4999308;28;20200;-64
2021/01/28 11:36:03;;;;;;;13.20;9.30;;;6.50;99.90;;;;;;4994588;28;20196;-65
2021/01/28 11:38:28;;;;;;;12.37;9.70;;;6.50;99.90;;;;;;5006056;28;20291;-64
2021/01/28 11:40:54;;;;;;;12.13;7.90;;;6.50;99.90;;;;;;4994692;28;20200;-65
2021/01/28 11:43:20;;;;;;;10.33;7.90;;;6.50;99.90;;;;;;4993809;28;20169;-65
2021/01/28 11:45:46;;;;;;;7.07;5.90;;;6.50;99.90;;;;;;4994193;28;20173;-64
2021/01/28 11:48:11;;;;;;;8.77;5.53;;;6.50;99.90;;;;;;4993939;28;20173;-65
2021/01/28 11:50:37;;;;;;;23.30;7.20;;;6.60;99.90;;;;;;5019186;23;20221;-67
2021/01/28 11:53:03;;;;;;;18.80;13.87;;;6.50;99.90;;;;;;5000900;28;20236;-66
2021/01/28 11:55:29;;;;;;;9.03;6.10;;;6.50;99.90;;;;;;4999669;28;20235;-66
2021/01/28 11:57:56;;;;;;;6.53;5.30;;;6.50;99.90;;;;;;5000382;28;20179;-67
2021/01/28 12:00:24;;;;;;;9.00;6.17;;;6.60;99.90;;;;;;5015013;28;20282;-66
2021/01/28 12:02:50;;;;;;;7.43;5.97;;;6.60;99.90;;;;;;5002588;28;20204;-67
2021/01/28 12:05:18;;;;;;;9.50;6.40;;;6.70;99.90;;;;;;5009281;28;20259;-67
2021/01/28 12:07:43;;;;;;;9.67;7.60;;;6.70;99.90;;;;;;5000803;28;20177;-67
2021/01/28 12:10:12;;;;;;;13.90;7.40;;;6.70;99.90;;;;;;4994984;28;20246;-66
2021/01/28 12:12:38;;;;;;;10.33;7.30;;;6.60;99.90;;;;;;5002780;28;20181;-67
2021/01/28 12:15:06;;;;;;;11.60;8.70;;;6.70;99.90;;;;;;5004847;28;20200;-67
2021/01/28 12:17:32;;;;;;;9.97;6.10;;;6.80;99.90;;;;;;4995563;28;20570;-67
2021/01/28 12:19:58;;;;;;;6.57;5.43;;;6.80;99.90;;;;;;4995178;28;20165;-66
2021/01/28 12:22:23;;;;;;;7.40;6.10;;;6.70;99.90;;;;;;5002460;28;20592;-67
2021/01/28 12:24:49;;;;;;;6.00;5.10;;;6.80;99.90;;;;;;5013218;28;20283;-66
2021/01/28 12:27:14;;;;;;;6.50;5.43;;;6.80;99.90;;;;;;5006660;28;20208;-67
2021/01/28 12:29:41;;;;;;;6.47;5.10;;;6.80;99.90;;;;;;4993722;28;20544;-66
2021/01/28 12:32:07;;;;;;;22.93;4.93;;;6.80;99.90;;;;;;4996668;28;20657;-67
2021/01/28 12:34:34;;;;;;;5.53;4.60;;;6.80;99.90;;;;;;5012854;28;20196;-65
2021/01/28 12:36:59;;;;;;;4.93;4.03;;;6.90;99.90;;;;;;5009674;28;20275;-66
2021/01/28 12:39:25;;;;;;;5.97;5.23;;;6.90;99.90;;;;;;4993125;28;20177;-65
2021/01/28 12:41:50;;;;;;;5.00;4.50;;;6.90;99.90;;;;;;5001789;28;20192;-66
2021/01/28 12:44:16;;;;;;;5.50;5.00;;;7.00;99.90;;;;;;5012632;28;20235;-66
2021/01/28 12:46:41;;;;;;;7.33;5.80;;;7.00;99.90;;;;;;5005223;28;20208;-67
2021/01/28 12:49:07;;;;;;;20.40;14.37;;;7.00;99.90;;;;;;4992937;28;20192;-67
2021/01/28 12:51:33;;;;;;;10.23;8.70;;;7.00;99.90;;;;;;4997787;28;20286;-67
2021/01/28 12:53:58;;;;;;;7.60;6.03;;;7.00;99.90;;;;;;5012621;28;20180;-67
2021/01/28 12:56:24;;;;;;;8.10;6.20;;;7.10;99.90;;;;;;5007829;28;20223;-66
2021/01/28 12:58:49;;;;;;;10.10;7.10;;;7.10;99.90;;;;;;4992391;28;20194;-65
2021/01/28 13:01:15;;;;;;;10.83;6.03;;;7.30;99.90;;;;;;4994135;28;20197;-66
2021/01/28 13:03:41;;;;;;;10.60;7.83;;;7.40;99.90;;;;;;5012420;28;20379;-66
2021/01/28 13:06:06;;;;;;;13.07;9.13;;;7.30;99.90;;;;;;5012264;28;20172;-65
2021/01/28 13:08:32;;;;;;;15.37;11.00;;;7.30;99.90;;;;;;5025372;28;20188;-65